createdAt,value
2023-02-22T00:00:01.403Z,7.88
2023-02-22T00:10:03.382Z,7.59
2023-02-22T00:20:07.903Z,7.48
2023-02-22T00:30:19.117Z,7.17
2023-02-22T00:40:32.895Z,7.00
2023-02-22T00:50:35.082Z,6.94
2023-02-22T01:00:40.577Z,6.77
2023-02-22T01:10:42.882Z,6.70
2023-02-22T01:20:48.911Z,7.08
2023-02-22T01:30:51.850Z,7.40
2023-02-22T01:40:56.750Z,7.77
2023-02-22T01:51:19.848Z,7.51
2023-02-22T02:01:23.589Z,7.29
2023-02-22T02:11:28.582Z,7.55
2023-02-22T02:21:52.552Z,7.50
2023-02-22T02:32:04.047Z,7.49
2023-02-22T02:42:12.447Z,7.48
2023-02-22T02:52:18.878Z,7.55
2023-02-22T03:02:34.446Z,7.55
2023-02-22T03:13:06.198Z,7.64
2023-02-22T03:23:15.696Z,7.57
2023-02-22T03:33:29.083Z,7.52
2023-02-22T03:43:45.251Z,7.71
2023-02-22T03:53:48.262Z,7.92
2023-02-22T04:03:50.012Z,7.92
2023-02-22T04:13:52.054Z,8.40
2023-02-22T04:24:00.390Z,8.06
2023-02-22T04:34:03.826Z,7.57
2023-02-22T04:44:05.999Z,7.09
2023-02-22T04:54:08.466Z,6.50
2023-02-22T05:04:10.336Z,6.25
2023-02-22T05:14:12.615Z,6.15
2023-02-22T05:24:14.452Z,5.85
2023-02-22T05:34:17.626Z,5.77
2023-02-22T05:44:21.888Z,5.68
2023-02-22T05:54:24.810Z,5.97
2023-02-22T06:04:26.630Z,6.39
2023-02-22T06:14:29.844Z,6.84
2023-02-22T06:24:32.023Z,7.10
2023-02-22T06:34:41.242Z,7.55
2023-02-22T06:44:43.229Z,7.92
2023-02-22T06:54:45.199Z,8.20
2023-02-22T07:04:47.106Z,8.61
2023-02-22T07:14:50.255Z,8.88
2023-02-22T07:24:55.422Z,9.06
2023-02-22T07:34:59.342Z,9.40
2023-02-22T07:45:01.045Z,9.88
2023-02-22T07:55:03.146Z,10.18
2023-02-22T08:05:06.845Z,10.49
2023-02-22T08:15:15.066Z,10.67
2023-02-22T08:25:18.938Z,11.51
2023-02-22T08:35:22.123Z,12.81
2023-02-22T08:45:24.413Z,14.72
2023-02-22T08:55:31.577Z,15.00
2023-02-22T09:05:33.782Z,15.22
2023-02-22T09:15:37.547Z,13.46
2023-02-22T09:25:41.061Z,13.77
2023-02-22T09:35:46.664Z,14.48
2023-02-22T09:46:34.762Z,13.95
2023-02-22T09:56:39.644Z,14.80
2023-02-22T10:06:58.534Z,15.12
2023-02-22T10:17:19.267Z,15.92
2023-02-22T10:27:28.496Z,16.71
2023-02-22T10:37:35.748Z,13.86
2023-02-22T10:47:37.856Z,13.60
2023-02-22T10:57:42.558Z,13.98
2023-02-22T11:07:44.234Z,13.05
2023-02-22T11:17:48.107Z,12.48
2023-02-22T11:27:52.882Z,12.12
2023-02-22T11:38:11.278Z,12.52
2023-02-22T11:48:24.401Z,12.46
2023-02-22T11:58:41.518Z,12.87
2023-02-22T12:09:07.835Z,12.60
2023-02-22T12:19:33.157Z,12.39
2023-02-22T12:29:49.213Z,12.35
2023-02-22T12:40:12.233Z,13.01
2023-02-22T12:50:23.582Z,12.88
2023-02-22T13:00:51.444Z,13.37
2023-02-22T13:11:09.644Z,13.78
2023-02-22T13:21:30.744Z,13.00
2023-02-22T13:31:55.070Z,12.77
2023-02-22T13:42:06.397Z,13.24
2023-02-22T13:52:16.718Z,12.81
2023-02-22T14:03:02.637Z,12.74
2023-02-22T14:13:12.263Z,12.51
2023-02-22T14:23:42.998Z,12.33
2023-02-22T14:34:09.131Z,12.12
2023-02-22T14:44:14.300Z,12.04
2023-02-22T14:54:54.298Z,11.87
2023-02-22T15:05:06.157Z,11.71
2023-02-22T15:15:17.917Z,11.63
2023-02-22T15:25:26.662Z,11.43
2023-02-22T15:35:34.316Z,11.54
2023-02-22T15:45:43.556Z,11.39
2023-02-22T15:55:49.921Z,11.35
2023-02-22T16:05:56.887Z,11.15
2023-02-22T16:16:18.267Z,11.05
2023-02-22T16:27:01.940Z,10.88
2023-02-22T16:37:22.515Z,10.56
2023-02-22T16:47:29.763Z,10.55
2023-02-22T17:08:08.785Z,10.32
2023-02-22T17:18:29.169Z,10.09
2023-02-22T17:28:33.129Z,9.98
2023-02-22T17:38:35.395Z,9.91
2023-02-22T17:48:49.444Z,9.54
2023-02-22T17:58:55.994Z,9.26
2023-02-22T18:09:01.004Z,9.12
2023-02-22T18:19:05.608Z,9.08
2023-02-22T18:29:08.274Z,8.74
2023-02-22T18:39:12.534Z,8.60
2023-02-22T18:49:15.215Z,8.50
2023-02-22T18:59:18.300Z,8.44
2023-02-22T19:09:23.237Z,8.33
2023-02-22T19:19:33.681Z,8.12
2023-02-22T19:29:41.558Z,8.14
2023-02-22T19:39:54.128Z,8.17
2023-02-22T19:49:59.761Z,8.13
2023-02-22T20:00:12.110Z,8.11
2023-02-22T20:10:16.787Z,8.18
2023-02-22T20:20:23.194Z,8.22
2023-02-22T20:30:33.144Z,8.17
2023-02-22T20:40:44.290Z,8.18
2023-02-22T20:50:46.956Z,8.20
2023-02-22T21:00:50.511Z,8.03
2023-02-22T21:10:57.819Z,8.04
2023-02-22T21:21:12.141Z,8.08
2023-02-22T21:31:15.378Z,8.05
2023-02-22T21:41:33.086Z,7.96
2023-02-22T21:51:38.554Z,7.90
2023-02-22T22:01:47.276Z,7.92
2023-02-22T22:11:54.548Z,7.80
2023-02-22T22:21:58.536Z,7.73
2023-02-22T22:32:07.225Z,7.58
2023-02-22T22:42:13.972Z,7.54
2023-02-22T22:52:16.649Z,7.44
2023-02-22T23:02:20.483Z,7.50
2023-02-22T23:12:31.571Z,7.46
2023-02-22T23:22:33.266Z,7.22
2023-02-22T23:32:35.319Z,7.22
2023-02-22T23:42:41.033Z,7.05
2023-02-22T23:52:44.275Z,7.01
